Lake Charles Regional Airport
KLCH : rendu visible

Aérodrome :











RETROUVEZ-NOUS SUR...

 
LOGIN :

S'inscrire | Disclaimer

   EN    FR    IT 

 









Légende :    VFR   VFR Marginal   IFR   IFR Intensif   IFR Très Intensif
Visi : 
Plafond : 
>= 8 km
>= 3000ft
5 à 8 km
1000 à 3000 ft
1500m à 5 km
500 à 1000 ft
800 à 1500m
200 à 500 ft
< 800m
< 200 ft
Symboles :   Orages  Brouillard  Fortes neiges  Fortes précipitations  Vent > 20 kt






- Altitude de l'aérodrome : 15 ft
- Code IATA : LCH


KLCH - Lake Charles Regional

DERNIER METAR :
  • 180953Z AUTO 07006KT 10SM FEW100 SCT120 16/12 A2986 RMK AO2 SLP119 T01610122

METARs EXPIRÉS :
  • 180853Z AUTO 05008KT 10SM FEW110 16/12 A2987 RMK AO2 SLP123 T01610122 58017
  • 180753Z AUTO 06005KT 10SM FEW033 16/12 A2989 RMK AO2 SLP130 T01560122

TAF KLCH
Valide du 18 à 06h jusqu'au 19 à 06h UTC


180522Z 1806/1906 06005KT P6SM SCT030 BKN045
FM181100 06005KT P6SM FEW030 SCT045
FM181500 06008KT P6SM SCT100



MET'MAP, la Météo Aéronautique d'un coup d'oeil ! - Copyright ORBIFLY Décembre 2007 - Disclaimer

ORBIFLY MET'MAP TEAM :

Programmation & Développement : Alexandra Zaïnal
Conception & Développement : Baudouin d'Aumeries
Co-Programmation & Développement : Marc-Olivier Méhu
Soutien technique & logistique : Manuel Goepfert

Contact : metmap@orbifly.com




SOURCES & CREDITS :

   NOAA       Earth
Advisory